Enter the Airport ICAO Code

Search by Airport or City

Current Weather

OMAA | Abu Dhabi International Airport

Abu Dhabi, United Arab Emirates

Last Update 40 Minutes Ago

Clear Sky

Temperature of 35 ºC

Moderate Winds from NorthWest

Temperature

35 ºC

Dew Point Temperature

26 ºC

Relative Humidity

59.89 %

Wind Direction

NorthWest (310º, Without Significant Variations)

Wind Velocity

24 km/h (13 kt)

Gusts

None

Visibility

No Significant Reductions

Sea Level Pressure

1002 hPa (Hectopascals)

Layers of Clouds

None

METAR OMAA 211400Z 31013KT CAVOK 35/26 Q1002 NOSIG

Weather Forecast

OMAA | Abu Dhabi International Airport

Abu Dhabi, United Arab Emirates

Forecast valid for the next 27 Hours

From now on it is expected:

Sky Without Significant nor Low Altitude Clouds

Moderate Winds from NorthWest

In 3 to 5 hours it is expected the begining of:

Light to Moderate Winds from SouthWest

In 14 to 16 hours it is expected the begining of:

Moderate Winds from West

Maximum Temperature

No Data

Minimum Temperature

No Data

TAF OMAA 211100Z 2112/2218 31012KT 8000 NSC BECMG 2118/2120 23005KT PROB30 2200/2204 3000 BR BKN010 BECMG 2205/2207 29011KT